Time;durP1;ratioP1;P1;durP2;ratioP2;P2;SDS_P1;SDS_P2;PMS_P1;PMS_P2;Temp;Humidity;BMP_temperature;BMP_pressure;BME280_temperature;BME280_humidity;BME280_pressure;Samples;Min_cycle;Max_cycle;Signal;HPM_P1;HPM_P2
2021/12/19 00:10:35;;;;;;;2.58;2.37;;;;;;;;;;143735;585;46020;-56
2021/12/19 00:13:02;;;;;;;2.90;2.62;;;;;;;;;;143743;661;46020;-56
2021/12/19 00:15:29;;;;;;;4.45;2.53;;;;;;;;;;143740;567;47023;-56
2021/12/19 00:17:56;;;;;;;4.00;2.40;;;;;;;;;;143739;583;47012;-56
2021/12/19 00:20:23;;;;;;;2.78;2.30;;;;;;;;;;143737;575;46020;-56
2021/12/19 00:22:50;;;;;;;7.78;2.80;;;;;;;;;;143744;580;46021;-56
2021/12/19 00:25:18;;;;;;;4.60;2.70;;;;;;;;;;143741;563;47020;-56
2021/12/19 00:27:45;;;;;;;3.30;2.40;;;;;;;;;;143740;620;47013;-56
2021/12/19 00:30:12;;;;;;;3.50;2.70;;;;;;;;;;143739;605;46021;-56
2021/12/19 00:32:40;;;;;;;3.37;2.37;;;;;;;;;;143744;582;46020;-56
2021/12/19 00:35:07;;;;;;;7.28;2.97;;;;;;;;;;143738;611;47029;-56
2021/12/19 00:37:34;;;;;;;7.18;3.37;;;;;;;;;;143740;654;47012;-56
2021/12/19 00:40:02;;;;;;;2.87;2.35;;;;;;;;;;143731;616;46020;-56
2021/12/19 00:42:34;;;;;;;2.65;2.10;;;;;;;;;;143744;652;46020;-56
2021/12/19 00:45:16;;;;;;;2.95;2.60;;;;;;;;;;143734;597;47020;-56
2021/12/19 00:47:46;;;;;;;3.90;2.35;;;;;;;;;;143737;587;47012;-56
2021/12/19 00:50:14;;;;;;;2.70;2.35;;;;;;;;;;143740;589;46020;-56
2021/12/19 00:52:41;;;;;;;4.80;2.50;;;;;;;;;;143743;617;46021;-57
2021/12/19 00:55:08;;;;;;;3.08;2.10;;;;;;;;;;143741;607;47020;-56
2021/12/19 00:57:36;;;;;;;2.47;2.22;;;;;;;;;;143739;585;47013;-57
2021/12/19 01:00:04;;;;;;;3.15;2.42;;;;;;;;;;143739;569;46021;-57
2021/12/19 01:02:31;;;;;;;3.10;2.30;;;;;;;;;;143744;648;46020;-56
2021/12/19 01:04:59;;;;;;;2.35;2.15;;;;;;;;;;143741;624;47028;-57
2021/12/19 01:07:26;;;;;;;5.10;2.45;;;;;;;;;;143740;606;47012;-57
2021/12/19 01:09:52;;;;;;;6.87;2.62;;;;;;;;;;143735;651;46020;-57
2021/12/19 01:12:19;;;;;;;3.30;2.58;;;;;;;;;;143741;591;46023;-57
2021/12/19 01:14:47;;;;;;;4.82;3.28;;;;;;;;;;143738;574;47020;-57
2021/12/19 01:17:14;;;;;;;5.20;3.08;;;;;;;;;;143738;622;47012;-58
2021/12/19 01:19:41;;;;;;;2.95;2.67;;;;;;;;;;143738;570;46020;-58
2021/12/19 01:22:08;;;;;;;3.85;2.72;;;;;;;;;;143743;679;46021;-58
2021/12/19 01:24:35;;;;;;;4.55;2.75;;;;;;;;;;143741;636;47022;-58
2021/12/19 01:27:02;;;;;;;3.60;2.70;;;;;;;;;;143740;628;47013;-59
2021/12/19 01:29:29;;;;;;;5.57;2.72;;;;;;;;;;143730;580;48021;-58
2021/12/19 01:31:57;;;;;;;5.65;3.05;;;;;;;;;;143743;721;46020;-57
2021/12/19 01:34:24;;;;;;;5.07;3.20;;;;;;;;;;143733;583;47022;-58
2021/12/19 01:36:51;;;;;;;4.50;3.28;;;;;;;;;;143738;591;47012;-58
2021/12/19 01:39:18;;;;;;;7.35;3.65;;;;;;;;;;143739;573;46020;-58
2021/12/19 01:41:57;;;;;;;5.85;3.22;;;;;;;;;;143742;580;46020;-58
2021/12/19 01:44:25;;;;;;;4.87;3.17;;;;;;;;;;143741;626;47020;-58
2021/12/19 01:46:53;;;;;;;5.25;3.05;;;;;;;;;;143738;578;47012;-58
2021/12/19 01:49:22;;;;;;;4.78;3.37;;;;;;;;;;143739;606;46020;-58
2021/12/19 01:51:49;;;;;;;7.30;3.70;;;;;;;;;;143743;592;46021;-58
2021/12/19 01:54:16;;;;;;;10.32;3.55;;;;;;;;;;143741;578;47020;-58
2021/12/19 01:56:43;;;;;;;3.87;3.33;;;;;;;;;;143738;600;47012;-58
2021/12/19 01:59:11;;;;;;;5.00;3.58;;;;;;;;;;143735;707;46021;-59
2021/12/19 02:01:46;;;;;;;5.95;3.60;;;;;;;;;;143743;582;46020;-58
2021/12/19 02:04:15;;;;;;;7.22;4.00;;;;;;;;;;143740;625;47035;-57
2021/12/19 02:06:42;;;;;;;6.07;4.03;;;;;;;;;;143739;583;47013;-58
2021/12/19 02:09:10;;;;;;;6.75;3.62;;;;;;;;;;143741;696;47012;-59
2021/12/19 02:11:39;;;;;;;4.53;3.08;;;;;;;;;;143740;641;46020;-58
2021/12/19 02:14:08;;;;;;;6.22;3.60;;;;;;;;;;143741;566;47020;-58
2021/12/19 02:16:38;;;;;;;6.50;3.80;;;;;;;;;;143739;594;47012;-58
2021/12/19 02:19:06;;;;;;;4.70;3.70;;;;;;;;;;143741;584;46020;-58
2021/12/19 02:21:34;;;;;;;6.55;3.97;;;;;;;;;;143744;570;46021;-59
2021/12/19 02:24:04;;;;;;;6.15;3.60;;;;;;;;;;143733;591;47020;-58
2021/12/19 02:26:31;;;;;;;4.15;3.45;;;;;;;;;;143740;580;47013;-58
2021/12/19 02:28:58;;;;;;;5.45;4.00;;;;;;;;;;143738;663;46021;-58
2021/12/19 02:31:27;;;;;;;5.47;3.53;;;;;;;;;;143743;585;46020;-57
2021/12/19 02:34:09;;;;;;;6.60;3.87;;;;;;;;;;143741;566;47021;-58
2021/12/19 02:48:14;;;;;;;6.70;4.10;;;;;;;;;;143741;586;47020;-58
2021/12/19 02:50:52;;;;;;;5.85;3.80;;;;;;;;;;143736;608;46021;-57
2021/12/19 02:53:30;;;;;;;7.78;4.07;;;;;;;;;;143743;585;46020;-58
2021/12/19 02:55:57;;;;;;;9.32;4.57;;;;;;;;;;143740;657;47020;-59
2021/12/19 02:58:25;;;;;;;8.43;4.10;;;;;;;;;;143737;590;47012;-59
2021/12/19 03:00:52;;;;;;;8.60;4.37;;;;;;;;;;143739;708;46020;-59
2021/12/19 03:03:19;;;;;;;11.57;4.30;;;;;;;;;;143742;565;46020;-58
2021/12/19 03:05:46;;;;;;;8.13;4.62;;;;;;;;;;143740;579;47029;-59
2021/12/19 03:08:14;;;;;;;7.28;4.15;;;;;;;;;;143740;591;47012;-57
2021/12/19 03:19:00;;;;;;;5.75;3.75;;;;;;;;;;143740;664;47021;-58
2021/12/19 03:21:27;;;;;;;5.25;3.78;;;;;;;;;;143739;585;46020;-58
2021/12/19 03:23:54;;;;;;;9.45;4.57;;;;;;;;;;143744;599;46020;-57
2021/12/19 03:26:21;;;;;;;5.78;4.28;;;;;;;;;;143739;574;47022;-57
2021/12/19 03:28:48;;;;;;;5.57;4.07;;;;;;;;;;143741;628;46034;-57
2021/12/19 03:31:15;;;;;;;5.72;3.83;;;;;;;;;;143741;563;46020;-58
2021/12/19 03:33:43;;;;;;;13.13;4.65;;;;;;;;;;143743;580;46020;-57
2021/12/19 03:36:10;;;;;;;8.05;4.10;;;;;;;;;;143738;578;47023;-58
2021/12/19 03:38:41;;;;;;;10.95;4.43;;;;;;;;;;143739;569;47012;-58
2021/12/19 03:41:18;;;;;;;5.53;3.95;;;;;;;;;;143735;570;46021;-57
2021/12/19 03:43:45;;;;;;;5.65;3.90;;;;;;;;;;143745;581;46021;-58
2021/12/19 03:46:12;;;;;;;6.93;4.15;;;;;;;;;;143743;571;47020;-58
2021/12/19 03:48:39;;;;;;;5.80;3.95;;;;;;;;;;143738;586;47013;-58
2021/12/19 03:51:07;;;;;;;7.28;4.45;;;;;;;;;;143741;583;46021;-58
2021/12/19 03:53:34;;;;;;;5.90;4.22;;;;;;;;;;143741;601;46020;-59
2021/12/19 03:56:01;;;;;;;8.43;4.30;;;;;;;;;;143742;609;47021;-58
2021/12/19 03:58:29;;;;;;;7.55;3.80;;;;;;;;;;143738;601;47012;-58
2021/12/19 04:01:00;;;;;;;10.57;4.50;;;;;;;;;;143739;597;46020;-58
2021/12/19 04:03:28;;;;;;;9.57;3.95;;;;;;;;;;143742;569;46020;-58
2021/12/19 04:05:55;;;;;;;8.00;4.40;;;;;;;;;;143733;582;47020;-58
2021/12/19 04:08:22;;;;;;;8.43;4.20;;;;;;;;;;143738;665;47012;-58
2021/12/19 04:10:52;;;;;;;8.13;4.68;;;;;;;;;;143739;649;46020;-58
2021/12/19 04:13:20;;;;;;;8.77;4.10;;;;;;;;;;143742;585;46021;-58
2021/12/19 04:15:50;;;;;;;8.32;4.45;;;;;;;;;;143740;565;47020;-58
2021/12/19 04:18:17;;;;;;;5.75;4.10;;;;;;;;;;143736;578;47012;-58
2021/12/19 04:20:44;;;;;;;6.97;4.05;;;;;;;;;;143739;569;46021;-58
2021/12/19 04:23:11;;;;;;;7.03;3.78;;;;;;;;;;143743;581;46020;-58
2021/12/19 04:25:39;;;;;;;6.32;4.28;;;;;;;;;;143741;586;47022;-58
2021/12/19 04:28:06;;;;;;;7.10;4.75;;;;;;;;;;143739;569;47012;-58
2021/12/19 04:30:33;;;;;;;6.32;4.40;;;;;;;;;;143734;585;46020;-58
2021/12/19 04:33:08;;;;;;;5.78;4.00;;;;;;;;;;143741;597;46020;-58
2021/12/19 04:35:38;;;;;;;7.20;4.30;;;;;;;;;;143740;601;47020;-58
2021/12/19 04:52:33;;;;;;;6.32;4.60;;;;;;;;;;143737;606;47020;-57
2021/12/19 04:57:48;;;;;;;6.97;4.30;;;;;;;;;;143734;578;47021;-59
2021/12/19 05:00:19;;;;;;;;;;;;;;;;;;143741;980;47012;-58
2021/12/19 05:02:54;;;;;;;6.65;4.70;;;;;;;;;;143744;566;46020;-58
2021/12/19 05:05:51;;;;;;;11.00;5.18;;;;;;;;;;143740;727;46021;-58
2021/12/19 05:14:09;;;;;;;5.72;4.47;;;;;;;;;;143739;569;46020;-57
2021/12/19 05:16:40;;;;;;;6.82;4.75;;;;;;;;;;143723;573;46020;-57
2021/12/19 05:19:19;;;;;;;8.75;5.28;;;;;;;;;;143740;569;47020;-57
2021/12/19 05:21:47;;;;;;;6.95;4.82;;;;;;;;;;143722;569;47012;-58
2021/12/19 05:24:42;;;;;;;5.80;4.65;;;;;;;;;;143733;602;46020;-58
2021/12/19 05:27:08;;;;;;;8.48;5.10;;;;;;;;;;143739;570;46021;-57
2021/12/19 05:29:37;;;;;;;7.80;5.35;;;;;;;;;;143739;607;47020;-58
2021/12/19 05:32:05;;;;;;;6.82;4.68;;;;;;;;;;143738;618;47012;-57
2021/12/19 05:34:32;;;;;;;6.78;4.80;;;;;;;;;;143739;671;46021;-58
2021/12/19 05:45:15;;;;;;;8.15;5.47;;;;;;;;;;143737;603;46905;-58
2021/12/19 05:47:43;;;;;;;6.50;4.80;;;;;;;;;;143739;583;47015;-58
2021/12/19 05:50:11;;;;;;;6.60;4.82;;;;;;;;;;143731;572;47020;-58
2021/12/19 05:52:39;;;;;;;7.25;4.60;;;;;;;;;;143736;564;47012;-58
2021/12/19 05:55:06;;;;;;;6.82;4.30;;;;;;;;;;143738;621;46020;-58
2021/12/19 05:57:34;;;;;;;6.05;4.57;;;;;;;;;;143740;581;46021;-58
2021/12/19 06:00:01;;;;;;;5.65;4.43;;;;;;;;;;143738;579;47022;-58
2021/12/19 06:02:29;;;;;;;5.90;4.40;;;;;;;;;;143735;600;47013;-59
2021/12/19 06:04:56;;;;;;;5.30;4.32;;;;;;;;;;143738;612;46021;-58
2021/12/19 06:07:23;;;;;;;5.57;4.18;;;;;;;;;;143740;608;46020;-58
2021/12/19 06:09:51;;;;;;;6.70;5.03;;;;;;;;;;143738;602;47041;-59
2021/12/19 06:12:17;;;;;;;8.88;5.10;;;;;;;;;;143737;631;47012;-58
2021/12/19 06:14:44;;;;;;;7.25;5.00;;;;;;;;;;143732;576;46020;-58
2021/12/19 06:17:11;;;;;;;7.00;4.50;;;;;;;;;;143738;578;46021;-58
2021/12/19 06:19:39;;;;;;;5.50;4.37;;;;;;;;;;143738;596;47023;-58
2021/12/19 06:22:08;;;;;;;7.03;4.68;;;;;;;;;;143735;690;47012;-58
2021/12/19 06:24:35;;;;;;;7.37;4.78;;;;;;;;;;143738;569;46021;-58
2021/12/19 06:27:03;;;;;;;7.45;5.03;;;;;;;;;;143741;669;46021;-59
2021/12/19 06:29:32;;;;;;;5.65;4.50;;;;;;;;;;143738;566;47020;-58
2021/12/19 06:31:59;;;;;;;6.60;4.82;;;;;;;;;;143737;580;46021;-58
2021/12/19 06:34:26;;;;;;;8.23;4.90;;;;;;;;;;143738;583;46021;-58
2021/12/19 06:36:53;;;;;;;7.65;5.18;;;;;;;;;;143732;590;46020;-58
2021/12/19 06:39:22;;;;;;;7.82;4.30;;;;;;;;;;143731;564;48020;-58
2021/12/19 06:41:50;;;;;;;7.57;4.60;;;;;;;;;;143736;570;47012;-58
2021/12/19 06:44:17;;;;;;;8.85;5.32;;;;;;;;;;143735;569;46020;-58
2021/12/19 06:46:44;;;;;;;5.85;4.82;;;;;;;;;;143741;583;46020;-58
2021/12/19 06:49:11;;;;;;;6.57;4.78;;;;;;;;;;143737;566;47020;-57
2021/12/19 06:51:38;;;;;;;8.02;5.55;;;;;;;;;;143735;650;47012;-58
2021/12/19 06:54:05;;;;;;;7.53;5.40;;;;;;;;;;143733;570;46020;-58
2021/12/19 06:56:32;;;;;;;6.35;5.15;;;;;;;;;;143741;599;46021;-57
2021/12/19 06:58:59;;;;;;;6.00;5.00;;;;;;;;;;143739;566;47020;-58
2021/12/19 07:01:26;;;;;;;7.55;5.32;;;;;;;;;;143739;590;47012;-57
2021/12/19 07:03:53;;;;;;;7.37;5.10;;;;;;;;;;143735;613;46021;-59
2021/12/19 07:06:20;;;;;;;6.87;4.90;;;;;;;;;;143741;711;46020;-58
2021/12/19 07:08:48;;;;;;;8.68;5.10;;;;;;;;;;143740;565;47021;-58
2021/12/19 07:11:15;;;;;;;7.60;5.28;;;;;;;;;;143737;605;47012;-57
2021/12/19 07:13:42;;;;;;;8.77;4.85;;;;;;;;;;143737;598;46020;-57
2021/12/19 07:16:09;;;;;;;7.20;4.82;;;;;;;;;;143740;581;46020;-57
2021/12/19 07:18:37;;;;;;;6.00;4.70;;;;;;;;;;143739;657;47021;-59
2021/12/19 07:21:05;;;;;;;10.57;5.30;;;;;;;;;;143741;613;45917;-58
2021/12/19 07:23:33;;;;;;;7.70;5.18;;;;;;;;;;143739;596;46020;-59
2021/12/19 07:26:00;;;;;;;7.37;5.35;;;;;;;;;;143740;698;46021;-58
2021/12/19 07:28:27;;;;;;;8.02;5.10;;;;;;;;;;143730;572;47022;-57
2021/12/19 07:30:56;;;;;;;7.75;5.22;;;;;;;;;;143733;624;47012;-59
2021/12/19 07:33:23;;;;;;;6.12;5.00;;;;;;;;;;143737;583;46019;-58
2021/12/19 07:35:51;;;;;;;7.97;5.10;;;;;;;;;;143741;629;46022;-58
2021/12/19 07:38:32;;;;;;;7.43;4.60;;;;;;;;;;143738;571;47020;-58
2021/12/19 07:41:02;;;;;;;7.15;5.18;;;;;;;;;;143734;569;47012;-58
2021/12/19 07:43:29;;;;;;;7.10;5.00;;;;;;;;;;143738;641;46018;-58
2021/12/19 07:45:56;;;;;;;6.62;4.65;;;;;;;;;;143743;710;46022;-58
2021/12/19 07:48:23;;;;;;;12.57;4.37;;;;;;;;;;143738;569;47019;-58
2021/12/19 07:50:50;;;;;;;6.50;4.87;;;;;;;;;;143735;573;47012;-57
2021/12/19 07:53:17;;;;;;;14.52;8.48;;;;;;;;;;143731;634;46018;-58
2021/12/19 07:55:44;;;;;;;20.60;13.25;;;;;;;;;;143740;594;47023;-57
2021/12/19 07:58:11;;;;;;;28.15;17.75;;;;;;;;;;143730;711;47020;-58
2021/12/19 08:00:38;;;;;;;14.85;9.27;;;;;;;;;;143730;590;47026;-58
2021/12/19 08:03:05;;;;;;;14.82;10.02;;;;;;;;;;143738;576;46018;-58
2021/12/19 08:05:32;;;;;;;12.37;8.35;;;;;;;;;;143734;566;46022;-59
2021/12/19 08:08:02;;;;;;;14.43;9.43;;;;;;;;;;143737;565;47018;-59
2021/12/19 08:13:19;;;;;;;11.43;7.32;;;;;;;;;;143739;565;47018;-58
2021/12/19 08:15:46;;;;;;;9.57;6.50;;;;;;;;;;143738;646;46022;-59
2021/12/19 08:18:13;;;;;;;12.15;7.80;;;;;;;;;;143732;591;47018;-58
2021/12/19 08:20:40;;;;;;;10.73;6.90;;;;;;;;;;143732;614;47012;-58
2021/12/19 08:23:07;;;;;;;9.35;6.20;;;;;;;;;;143738;595;46018;-59
2021/12/19 08:25:34;;;;;;;9.35;6.22;;;;;;;;;;143738;665;47023;-61
2021/12/19 08:28:01;;;;;;;8.63;5.82;;;;;;;;;;143738;648;47020;-59
2021/12/19 08:30:29;;;;;;;7.78;5.93;;;;;;;;;;143730;585;47012;-58
2021/12/19 08:32:56;;;;;;;7.97;5.70;;;;;;;;;;143736;590;46019;-60
2021/12/19 08:35:23;;;;;;;8.38;5.55;;;;;;;;;;143742;612;46022;-58
2021/12/19 08:37:51;;;;;;;8.50;5.40;;;;;;;;;;143739;719;47018;-59
2021/12/19 08:40:17;;;;;;;6.60;5.32;;;;;;;;;;143737;586;47012;-58
2021/12/19 08:42:47;;;;;;;8.93;5.90;;;;;;;;;;143734;570;46018;-59
2021/12/19 08:45:15;;;;;;;10.45;6.18;;;;;;;;;;143743;580;46022;-59
2021/12/19 08:47:43;;;;;;;34.50;17.23;;;;;;;;;;143736;641;47020;-59
2021/12/19 08:50:10;;;;;;;18.45;11.20;;;;;;;;;;143736;584;45922;-59
2021/12/19 08:52:37;;;;;;;14.40;8.73;;;;;;;;;;143734;605;46018;-59
2021/12/19 08:55:05;;;;;;;10.60;7.43;;;;;;;;;;143739;589;46023;-58
2021/12/19 08:57:32;;;;;;;14.85;8.93;;;;;;;;;;143736;617;47033;-59
2021/12/19 08:59:59;;;;;;;11.45;7.97;;;;;;;;;;143735;577;47012;-59
2021/12/19 09:02:27;;;;;;;12.43;8.52;;;;;;;;;;143738;569;46018;-59
2021/12/19 09:04:53;;;;;;;11.48;8.07;;;;;;;;;;143738;571;46022;-58
2021/12/19 09:07:21;;;;;;;11.98;7.20;;;;;;;;;;143732;596;47018;-58
2021/12/19 09:09:48;;;;;;;11.73;7.28;;;;;;;;;;143735;570;47012;-59
2021/12/19 09:12:16;;;;;;;9.77;6.43;;;;;;;;;;143738;579;46018;-59
2021/12/19 09:14:43;;;;;;;9.93;6.00;;;;;;;;;;143740;591;46022;-58
2021/12/19 09:17:10;;;;;;;8.40;5.87;;;;;;;;;;143738;611;47021;-58
2021/12/19 09:19:37;;;;;;;9.35;6.68;;;;;;;;;;143735;745;47012;-59
2021/12/19 09:22:05;;;;;;;9.30;5.78;;;;;;;;;;143736;631;46018;-59
2021/12/19 09:24:32;;;;;;;8.48;5.75;;;;;;;;;;143742;579;46022;-59
2021/12/19 09:27:00;;;;;;;7.60;5.80;;;;;;;;;;143738;604;47020;-59
2021/12/19 09:29:28;;;;;;;9.68;6.05;;;;;;;;;;143735;565;47012;-59
2021/12/19 09:31:56;;;;;;;9.02;5.62;;;;;;;;;;143733;600;46018;-59
2021/12/19 09:34:26;;;;;;;7.18;5.35;;;;;;;;;;143741;694;46023;-59
2021/12/19 09:36:53;;;;;;;7.57;5.43;;;;;;;;;;143740;624;47018;-58
2021/12/19 09:39:20;;;;;;;8.43;6.15;;;;;;;;;;143735;587;47013;-59
2021/12/19 09:41:52;;;;;;;9.05;6.30;;;;;;;;;;143737;578;46018;-59
2021/12/19 09:44:19;;;;;;;39.28;22.85;;;;;;;;;;143722;585;46022;-59
2021/12/19 09:46:46;;;;;;;21.62;12.65;;;;;;;;;;143733;620;47019;-57
2021/12/19 09:49:16;;;;;;;10.80;7.10;;;;;;;;;;143734;627;47012;-56
2021/12/19 09:51:43;;;;;;;15.00;9.05;;;;;;;;;;143734;576;46018;-57
2021/12/19 09:54:12;;;;;;;8.52;5.28;;;;;;;;;;143740;576;46022;-57
2021/12/19 09:56:40;;;;;;;9.02;5.87;;;;;;;;;;143732;595;47020;-57
2021/12/19 09:59:25;;;;;;;9.07;6.22;;;;;;;;;;143737;656;47012;-58
2021/12/19 10:01:53;;;;;;;11.10;7.00;;;;;;;;;;143738;586;46018;-57
2021/12/19 10:04:40;;;;;;;6.78;5.22;;;;;;;;;;143741;576;46022;-58
2021/12/19 10:07:23;;;;;;;9.80;5.80;;;;;;;;;;143738;563;47020;-59
2021/12/19 10:10:25;;;;;;;8.13;5.28;;;;;;;;;;143736;578;47012;-57
2021/12/19 10:12:57;;;;;;;8.23;5.25;;;;;;;;;;143720;577;46911;-58
2021/12/19 10:15:37;;;;;;;8.57;5.87;;;;;;;;;;143741;622;46022;-57
2021/12/19 10:18:12;;;;;;;8.70;6.07;;;;;;;;;;143739;575;47021;-58
2021/12/19 10:20:57;;;;;;;8.45;4.80;;;;;;;;;;143739;600;47012;-58
2021/12/19 10:23:32;;;;;;;13.52;7.03;;;;;;;;;;143730;583;47013;-60
2021/12/19 10:26:08;;;;;;;;;;;;;;;;;;143747;979;46023;-59
2021/12/19 10:28:56;;;;;;;25.85;15.52;;;;;;;;;;143744;582;47018;-59
2021/12/19 10:31:25;;;;;;;14.00;8.55;;;;;;;;;;143731;599;47013;-58
2021/12/19 10:33:53;;;;;;;12.90;7.10;;;;;;;;;;143737;576;46018;-57
2021/12/19 10:36:20;;;;;;;16.15;9.55;;;;;;;;;;143740;563;46022;-58
2021/12/19 10:38:52;;;;;;;9.93;6.80;;;;;;;;;;143736;571;47019;-58
2021/12/19 10:41:33;;;;;;;11.10;6.45;;;;;;;;;;143738;610;47012;-58
2021/12/19 10:44:10;;;;;;;10.63;6.93;;;;;;;;;;143736;620;46018;-58
2021/12/19 10:46:40;;;;;;;9.02;5.62;;;;;;;;;;143738;571;46022;-58
2021/12/19 10:49:23;;;;;;;6.18;4.18;;;;;;;;;;143733;610;47026;-59
2021/12/19 10:51:51;;;;;;;6.93;4.68;;;;;;;;;;143739;627;47012;-59
2021/12/19 10:54:18;;;;;;;8.50;5.20;;;;;;;;;;143736;581;46019;-59
2021/12/19 10:56:45;;;;;;;6.45;4.60;;;;;;;;;;143742;564;46022;-58
2021/12/19 10:59:16;;;;;;;5.68;3.87;;;;;;;;;;143738;578;47019;-58
2021/12/19 11:01:52;;;;;;;5.22;4.12;;;;;;;;;;143737;594;47012;-58
2021/12/19 11:04:21;;;;;;;6.60;4.90;;;;;;;;;;143739;639;46018;-57
2021/12/19 11:07:05;;;;;;;17.10;13.40;;;;;;;;;;143742;572;46022;-59
2021/12/19 11:09:36;;;;;;;25.02;17.73;;;;;;;;;;143733;611;48023;-58
2021/12/19 11:12:05;;;;;;;22.37;17.17;;;;;;;;;;143733;605;47012;-59
2021/12/19 11:14:44;;;;;;;11.38;8.68;;;;;;;;;;143732;641;46018;-61
2021/12/19 11:17:18;;;;;;;11.12;7.20;;;;;;;;;;143742;580;46023;-59
2021/12/19 11:19:45;;;;;;;8.40;6.37;;;;;;;;;;143741;655;47020;-59
2021/12/19 11:22:15;;;;;;;9.25;6.85;;;;;;;;;;143736;582;47020;-60
2021/12/19 11:24:42;;;;;;;9.25;5.78;;;;;;;;;;143739;601;46021;-59
2021/12/19 11:27:09;;;;;;;8.13;5.93;;;;;;;;;;143743;646;46020;-59
2021/12/19 11:29:38;;;;;;;8.63;6.35;;;;;;;;;;143739;645;47020;-59
2021/12/19 11:32:08;;;;;;;6.47;3.75;;;;;;;;;;143739;570;46032;-59
2021/12/19 11:34:58;;;;;;;6.20;4.43;;;;;;;;;;143740;589;46018;-59
2021/12/19 11:37:33;;;;;;;6.95;4.78;;;;;;;;;;143742;630;46024;-59
2021/12/19 11:40:00;;;;;;;7.18;4.85;;;;;;;;;;143732;630;47018;-60
2021/12/19 11:42:33;;;;;;;5.68;4.18;;;;;;;;;;143738;610;47012;-59
2021/12/19 11:45:17;;;;;;;6.28;4.10;;;;;;;;;;143739;573;46018;-60
2021/12/19 11:47:50;;;;;;;5.78;3.90;;;;;;;;;;143725;611;46023;-61
2021/12/19 11:50:25;;;;;;;6.65;4.62;;;;;;;;;;143739;580;47020;-60
2021/12/19 11:53:19;;;;;;;5.25;3.60;;;;;;;;;;143845;570;46022;-59
2021/12/19 11:55:52;;;;;;;4.62;3.53;;;;;;;;;;143743;581;46010;-60
2021/12/19 11:58:45;;;;;;;5.37;4.03;;;;;;;;;;143739;580;47022;-59
2021/12/19 12:01:34;;;;;;;5.72;4.07;;;;;;;;;;143733;623;47012;-61
2021/12/19 12:04:23;;;;;;;6.53;4.12;;;;;;;;;;143737;588;45020;-60
2021/12/19 12:06:58;;;;;;;5.28;4.15;;;;;;;;;;143737;763;46010;-60
2021/12/19 12:09:40;;;;;;;5.37;3.90;;;;;;;;;;143732;587;47022;-62
2021/12/19 12:12:13;;;;;;;6.43;4.72;;;;;;;;;;143734;590;46013;-60
2021/12/19 12:14:55;;;;;;;6.10;4.65;;;;;;;;;;143736;614;45021;-61
2021/12/19 12:17:31;;;;;;;4.97;3.90;;;;;;;;;;143739;657;46010;-60
2021/12/19 12:20:01;;;;;;;6.15;4.15;;;;;;;;;;143732;584;47022;-60
2021/12/19 12:22:39;;;;;;;5.10;3.90;;;;;;;;;;143733;570;46012;-60
2021/12/19 12:25:21;;;;;;;6.00;4.10;;;;;;;;;;143734;591;45020;-60
2021/12/19 12:28:02;;;;;;;6.22;4.10;;;;;;;;;;143738;619;46012;-61
2021/12/19 12:30:46;;;;;;;4.80;3.83;;;;;;;;;;143731;607;47023;-60
2021/12/19 12:33:16;;;;;;;4.87;3.72;;;;;;;;;;143735;641;46012;-60
2021/12/19 12:35:48;;;;;;;6.22;4.40;;;;;;;;;;143735;583;45021;-60
2021/12/19 12:38:17;;;;;;;5.93;4.12;;;;;;;;;;143738;583;46020;-60
2021/12/19 12:40:54;;;;;;;5.93;4.20;;;;;;;;;;143732;587;47022;-60
2021/12/19 12:43:24;;;;;;;6.37;4.35;;;;;;;;;;143735;582;46012;-60
2021/12/19 12:46:09;;;;;;;5.40;4.18;;;;;;;;;;143735;590;45020;-61
2021/12/19 12:49:01;;;;;;;5.68;4.35;;;;;;;;;;143738;580;46020;-62
2021/12/19 12:52:13;;;;;;;5.82;4.28;;;;;;;;;;143734;660;47020;-60
2021/12/19 12:54:44;;;;;;;5.60;4.45;;;;;;;;;;143735;736;46012;-61
2021/12/19 12:57:15;;;;;;;6.68;4.47;;;;;;;;;;143732;636;47021;-62
2021/12/19 12:59:43;;;;;;;6.82;4.40;;;;;;;;;;143738;609;46012;-60
2021/12/19 13:02:25;;;;;;;5.60;4.18;;;;;;;;;;143732;576;47022;-60
2021/12/19 13:04:53;;;;;;;5.85;4.30;;;;;;;;;;143735;587;46012;-60
2021/12/19 13:07:24;;;;;;;5.62;4.28;;;;;;;;;;143734;613;45021;-61
2021/12/19 13:10:00;;;;;;;7.12;4.53;;;;;;;;;;143738;622;46012;-61
2021/12/19 13:12:34;;;;;;;6.30;4.50;;;;;;;;;;143731;574;47021;-60
2021/12/19 13:15:15;;;;;;;5.37;4.07;;;;;;;;;;143735;579;46916;-60
2021/12/19 13:17:50;;;;;;;6.72;4.60;;;;;;;;;;143735;623;45020;-60
2021/12/19 13:20:28;;;;;;;5.72;4.40;;;;;;;;;;143737;613;46021;-60
2021/12/19 13:22:58;;;;;;;5.60;4.40;;;;;;;;;;143733;575;47020;-61
2021/12/19 13:25:37;;;;;;;5.85;4.60;;;;;;;;;;143735;569;46918;-60
2021/12/19 13:28:10;;;;;;;6.68;4.78;;;;;;;;;;143734;624;45021;-61
2021/12/19 13:30:42;;;;;;;6.05;4.57;;;;;;;;;;143738;567;46020;-61
2021/12/19 13:33:13;;;;;;;5.18;4.15;;;;;;;;;;143732;566;47020;-61
2021/12/19 13:35:48;;;;;;;6.37;4.62;;;;;;;;;;143738;585;46013;-59
2021/12/19 13:38:21;;;;;;;5.60;4.37;;;;;;;;;;143734;603;45020;-60
2021/12/19 13:40:55;;;;;;;6.62;4.70;;;;;;;;;;143738;595;46012;-61
2021/12/19 13:43:30;;;;;;;5.82;4.20;;;;;;;;;;143731;566;47021;-61
2021/12/19 13:46:07;;;;;;;6.65;5.20;;;;;;;;;;143734;584;46012;-61
2021/12/19 13:48:39;;;;;;;6.22;4.65;;;;;;;;;;143736;607;45020;-60
2021/12/19 13:51:13;;;;;;;7.85;4.93;;;;;;;;;;143737;594;47012;-60
2021/12/19 13:53:48;;;;;;;6.72;4.85;;;;;;;;;;143732;661;47020;-61
2021/12/19 13:56:30;;;;;;;14.05;4.70;;;;;;;;;;143735;649;46012;-60
2021/12/19 13:59:03;;;;;;;6.05;4.70;;;;;;;;;;143734;577;45021;-60
2021/12/19 14:01:34;;;;;;;6.12;4.68;;;;;;;;;;143740;614;46012;-60
2021/12/19 14:04:05;;;;;;;5.85;4.35;;;;;;;;;;143731;569;47021;-60
2021/12/19 14:06:36;;;;;;;5.78;4.32;;;;;;;;;;143735;650;46012;-60
2021/12/19 14:09:14;;;;;;;6.95;5.20;;;;;;;;;;143737;604;45020;-60
2021/12/19 14:11:44;;;;;;;5.07;4.05;;;;;;;;;;143737;636;46013;-60
2021/12/19 14:14:27;;;;;;;4.40;3.85;;;;;;;;;;143732;569;47021;-59
2021/12/19 14:17:03;;;;;;;5.47;4.00;;;;;;;;;;143733;615;46012;-60
2021/12/19 14:19:42;;;;;;;5.10;4.15;;;;;;;;;;143732;573;45021;-60
2021/12/19 14:22:13;;;;;;;5.65;4.20;;;;;;;;;;143737;584;46012;-59
2021/12/19 14:24:53;;;;;;;5.15;4.47;;;;;;;;;;143731;569;47020;-61
2021/12/19 14:27:39;;;;;;;5.93;4.10;;;;;;;;;;143735;591;46013;-60
2021/12/19 14:30:16;;;;;;;4.97;3.75;;;;;;;;;;143732;566;45020;-60
2021/12/19 14:32:52;;;;;;;5.53;3.97;;;;;;;;;;143738;575;46020;-59
2021/12/19 14:35:28;;;;;;;7.10;4.37;;;;;;;;;;143733;618;47021;-59
2021/12/19 14:38:01;;;;;;;4.80;3.87;;;;;;;;;;143733;604;46012;-59
2021/12/19 14:40:40;;;;;;;6.80;4.15;;;;;;;;;;143736;587;45020;-59
2021/12/19 14:43:12;;;;;;;5.57;3.87;;;;;;;;;;143738;574;46012;-59
2021/12/19 14:45:52;;;;;;;6.07;4.40;;;;;;;;;;143732;589;47020;-61
2021/12/19 14:48:31;;;;;;;6.68;4.60;;;;;;;;;;143733;570;46012;-59
2021/12/19 14:51:06;;;;;;;9.15;4.55;;;;;;;;;;143736;572;45021;-60
2021/12/19 14:53:38;;;;;;;6.43;4.35;;;;;;;;;;143738;618;46012;-59
2021/12/19 14:56:11;;;;;;;5.97;4.25;;;;;;;;;;143733;614;47020;-59
2021/12/19 14:58:41;;;;;;;7.70;4.53;;;;;;;;;;143739;647;46012;-59
2021/12/19 15:01:11;;;;;;;5.30;4.00;;;;;;;;;;143737;648;45041;-59
2021/12/19 15:03:49;;;;;;;7.07;4.68;;;;;;;;;;143739;574;46010;-60
2021/12/19 15:06:21;;;;;;;6.53;4.47;;;;;;;;;;143734;613;47021;-60
2021/12/19 15:08:48;;;;;;;7.20;4.82;;;;;;;;;;143739;566;46012;-60
2021/12/19 15:11:15;;;;;;;5.82;3.85;;;;;;;;;;143740;660;45021;-60
2021/12/19 15:13:43;;;;;;;6.65;4.50;;;;;;;;;;143738;580;46010;-60
2021/12/19 15:16:10;;;;;;;7.72;4.18;;;;;;;;;;143734;571;47020;-61
2021/12/19 15:18:45;;;;;;;5.70;4.10;;;;;;;;;;143738;570;46013;-60
2021/12/19 15:21:14;;;;;;;6.87;4.45;;;;;;;;;;143740;571;45021;-60
2021/12/19 15:23:42;;;;;;;7.25;5.60;;;;;;;;;;143738;570;46010;-60
2021/12/19 15:26:14;;;;;;;6.40;4.62;;;;;;;;;;143733;606;47022;-60
2021/12/19 15:28:44;;;;;;;5.37;4.05;;;;;;;;;;143740;577;46012;-60
2021/12/19 15:31:11;;;;;;;23.25;13.32;;;;;;;;;;143736;592;45020;-60
2021/12/19 15:33:39;;;;;;;9.50;6.87;;;;;;;;;;143738;589;46010;-60
2021/12/19 15:36:06;;;;;;;11.43;5.70;;;;;;;;;;143736;569;47023;-60
2021/12/19 15:38:34;;;;;;;12.95;6.22;;;;;;;;;;143738;566;46012;-60
2021/12/19 15:41:02;;;;;;;7.32;5.30;;;;;;;;;;143738;587;45021;-60
2021/12/19 15:43:29;;;;;;;7.82;5.43;;;;;;;;;;143739;599;46010;-59
2021/12/19 15:45:56;;;;;;;10.20;5.62;;;;;;;;;;143736;684;47022;-60
2021/12/19 15:48:26;;;;;;;8.10;5.20;;;;;;;;;;143738;567;46013;-60
2021/12/19 15:50:53;;;;;;;6.28;4.53;;;;;;;;;;143740;591;45021;-59
2021/12/19 15:53:20;;;;;;;11.45;5.25;;;;;;;;;;143738;677;46021;-60
2021/12/19 15:55:47;;;;;;;6.15;4.60;;;;;;;;;;143735;566;47022;-59
2021/12/19 15:58:15;;;;;;;8.90;5.00;;;;;;;;;;143739;565;46012;-60
2021/12/19 16:00:47;;;;;;;6.97;5.05;;;;;;;;;;143738;602;45912;-60
2021/12/19 16:03:14;;;;;;;8.05;4.97;;;;;;;;;;143738;632;46020;-60
2021/12/19 16:05:41;;;;;;;7.82;4.40;;;;;;;;;;143737;686;47021;-60